sensor_id;sensor_type;location;lat;lon;timestamp;P1;durP1;ratioP1;P2;durP2;ratioP2
75793;SDS011;64418;47.536;19.074;2023-03-16T00:01:39;6.77;;;2.80;;
75793;SDS011;64418;47.536;19.074;2023-03-16T00:04:05;4.40;;;2.17;;
75793;SDS011;64418;47.536;19.074;2023-03-16T00:06:31;6.65;;;3.00;;
75793;SDS011;64418;47.536;19.074;2023-03-16T00:08:58;5.63;;;2.70;;
75793;SDS011;64418;47.536;19.074;2023-03-16T00:11:24;3.40;;;2.15;;
75793;SDS011;64418;47.536;19.074;2023-03-16T00:13:50;8.15;;;2.42;;
75793;SDS011;64418;47.536;19.074;2023-03-16T00:16:16;6.72;;;2.60;;
75793;SDS011;64418;47.536;19.074;2023-03-16T00:18:42;4.90;;;2.17;;
75793;SDS011;64418;47.536;19.074;2023-03-16T00:21:08;5.05;;;2.45;;
75793;SDS011;64418;47.536;19.074;2023-03-16T00:23:35;5.72;;;2.40;;
75793;SDS011;64418;47.536;19.074;2023-03-16T00:26:03;3.72;;;2.62;;
75793;SDS011;64418;47.536;19.074;2023-03-16T00:28:30;7.17;;;2.27;;
75793;SDS011;64418;47.536;19.074;2023-03-16T00:30:57;9.57;;;2.53;;
75793;SDS011;64418;47.536;19.074;2023-03-16T00:33:23;7.82;;;2.85;;
75793;SDS011;64418;47.536;19.074;2023-03-16T00:35:49;5.03;;;2.90;;
75793;SDS011;64418;47.536;19.074;2023-03-16T00:38:15;7.70;;;2.65;;
75793;SDS011;64418;47.536;19.074;2023-03-16T00:40:41;6.47;;;3.00;;
75793;SDS011;64418;47.536;19.074;2023-03-16T00:43:08;4.93;;;2.53;;
75793;SDS011;64418;47.536;19.074;2023-03-16T00:45:34;8.17;;;2.60;;
75793;SDS011;64418;47.536;19.074;2023-03-16T00:48:00;9.18;;;2.62;;
75793;SDS011;64418;47.536;19.074;2023-03-16T00:50:25;6.67;;;2.70;;
75793;SDS011;64418;47.536;19.074;2023-03-16T00:52:51;4.60;;;2.50;;
75793;SDS011;64418;47.536;19.074;2023-03-16T00:55:17;7.15;;;2.83;;
75793;SDS011;64418;47.536;19.074;2023-03-16T00:57:43;4.93;;;2.53;;
75793;SDS011;64418;47.536;19.074;2023-03-16T01:00:11;6.37;;;2.50;;
75793;SDS011;64418;47.536;19.074;2023-03-16T01:02:38;8.05;;;2.90;;
75793;SDS011;64418;47.536;19.074;2023-03-16T01:05:05;7.07;;;2.65;;
75793;SDS011;64418;47.536;19.074;2023-03-16T01:07:32;6.23;;;2.67;;
75793;SDS011;64418;47.536;19.074;2023-03-16T01:09:59;4.78;;;2.17;;
75793;SDS011;64418;47.536;19.074;2023-03-16T01:12:24;6.05;;;2.40;;
75793;SDS011;64418;47.536;19.074;2023-03-16T01:14:51;5.47;;;2.58;;
75793;SDS011;64418;47.536;19.074;2023-03-16T01:17:18;6.83;;;2.53;;
75793;SDS011;64418;47.536;19.074;2023-03-16T01:19:44;4.40;;;2.40;;
75793;SDS011;64418;47.536;19.074;2023-03-16T01:22:10;4.78;;;2.45;;
75793;SDS011;64418;47.536;19.074;2023-03-16T01:24:36;5.20;;;2.30;;
75793;SDS011;64418;47.536;19.074;2023-03-16T01:27:03;7.22;;;2.53;;
75793;SDS011;64418;47.536;19.074;2023-03-16T01:29:29;3.33;;;1.80;;
75793;SDS011;64418;47.536;19.074;2023-03-16T01:31:55;3.12;;;1.98;;
75793;SDS011;64418;47.536;19.074;2023-03-16T01:34:22;3.58;;;1.87;;
75793;SDS011;64418;47.536;19.074;2023-03-16T01:36:48;4.40;;;2.00;;
75793;SDS011;64418;47.536;19.074;2023-03-16T01:39:15;6.90;;;2.25;;
75793;SDS011;64418;47.536;19.074;2023-03-16T01:41:42;6.28;;;2.12;;
75793;SDS011;64418;47.536;19.074;2023-03-16T01:44:10;5.25;;;2.20;;
75793;SDS011;64418;47.536;19.074;2023-03-16T01:46:37;6.95;;;2.40;;
75793;SDS011;64418;47.536;19.074;2023-03-16T01:49:04;4.73;;;2.60;;
75793;SDS011;64418;47.536;19.074;2023-03-16T01:51:38;6.35;;;2.22;;
75793;SDS011;64418;47.536;19.074;2023-03-16T01:54:07;6.10;;;2.20;;
75793;SDS011;64418;47.536;19.074;2023-03-16T01:56:39;3.97;;;2.20;;
75793;SDS011;64418;47.536;19.074;2023-03-16T01:59:09;4.27;;;2.50;;
75793;SDS011;64418;47.536;19.074;2023-03-16T02:01:39;5.62;;;2.65;;
75793;SDS011;64418;47.536;19.074;2023-03-16T02:04:10;5.47;;;2.37;;
75793;SDS011;64418;47.536;19.074;2023-03-16T02:06:43;6.53;;;2.50;;
75793;SDS011;64418;47.536;19.074;2023-03-16T02:09:11;4.55;;;2.55;;
75793;SDS011;64418;47.536;19.074;2023-03-16T02:11:37;5.43;;;2.60;;
75793;SDS011;64418;47.536;19.074;2023-03-16T02:14:05;6.62;;;2.92;;
75793;SDS011;64418;47.536;19.074;2023-03-16T02:16:33;7.28;;;2.30;;
75793;SDS011;64418;47.536;19.074;2023-03-16T02:18:59;5.43;;;2.87;;
75793;SDS011;64418;47.536;19.074;2023-03-16T02:21:26;5.78;;;2.37;;
75793;SDS011;64418;47.536;19.074;2023-03-16T02:24:00;7.03;;;2.80;;
75793;SDS011;64418;47.536;19.074;2023-03-16T02:26:28;6.50;;;2.70;;
75793;SDS011;64418;47.536;19.074;2023-03-16T02:29:05;6.03;;;2.57;;
75793;SDS011;64418;47.536;19.074;2023-03-16T02:31:39;6.60;;;2.90;;
75793;SDS011;64418;47.536;19.074;2023-03-16T02:34:07;4.90;;;2.60;;
75793;SDS011;64418;47.536;19.074;2023-03-16T02:36:33;5.47;;;2.40;;
75793;SDS011;64418;47.536;19.074;2023-03-16T02:39:02;5.28;;;2.75;;
75793;SDS011;64418;47.536;19.074;2023-03-16T02:41:27;6.53;;;2.60;;
75793;SDS011;64418;47.536;19.074;2023-03-16T02:43:54;5.68;;;2.78;;
75793;SDS011;64418;47.536;19.074;2023-03-16T02:46:26;7.97;;;3.20;;
75793;SDS011;64418;47.536;19.074;2023-03-16T02:48:54;5.87;;;2.78;;
75793;SDS011;64418;47.536;19.074;2023-03-16T02:51:25;7.30;;;2.67;;
75793;SDS011;64418;47.536;19.074;2023-03-16T02:53:51;10.00;;;2.50;;
75793;SDS011;64418;47.536;19.074;2023-03-16T02:56:16;8.57;;;2.60;;
75793;SDS011;64418;47.536;19.074;2023-03-16T02:58:43;5.25;;;2.40;;
75793;SDS011;64418;47.536;19.074;2023-03-16T03:01:09;6.40;;;2.80;;
75793;SDS011;64418;47.536;19.074;2023-03-16T03:03:34;5.43;;;2.73;;
75793;SDS011;64418;47.536;19.074;2023-03-16T03:06:01;4.15;;;2.22;;
75793;SDS011;64418;47.536;19.074;2023-03-16T03:08:27;5.43;;;2.87;;
75793;SDS011;64418;47.536;19.074;2023-03-16T03:10:53;5.90;;;2.60;;
75793;SDS011;64418;47.536;19.074;2023-03-16T03:13:18;9.40;;;2.45;;
75793;SDS011;64418;47.536;19.074;2023-03-16T03:15:44;5.85;;;2.85;;
75793;SDS011;64418;47.536;19.074;2023-03-16T03:18:10;5.47;;;2.47;;
75793;SDS011;64418;47.536;19.074;2023-03-16T03:20:36;6.00;;;2.65;;
75793;SDS011;64418;47.536;19.074;2023-03-16T03:23:03;9.20;;;2.63;;
75793;SDS011;64418;47.536;19.074;2023-03-16T03:25:29;7.68;;;2.90;;
75793;SDS011;64418;47.536;19.074;2023-03-16T03:27:55;10.00;;;3.05;;
75793;SDS011;64418;47.536;19.074;2023-03-16T03:30:22;6.83;;;2.90;;
75793;SDS011;64418;47.536;19.074;2023-03-16T03:32:49;8.27;;;2.70;;
75793;SDS011;64418;47.536;19.074;2023-03-16T03:35:15;5.75;;;2.67;;
75793;SDS011;64418;47.536;19.074;2023-03-16T03:37:41;7.97;;;3.03;;
75793;SDS011;64418;47.536;19.074;2023-03-16T03:40:10;8.52;;;2.97;;
75793;SDS011;64418;47.536;19.074;2023-03-16T03:42:37;6.18;;;2.65;;
75793;SDS011;64418;47.536;19.074;2023-03-16T03:45:04;8.13;;;3.42;;
75793;SDS011;64418;47.536;19.074;2023-03-16T03:47:30;7.82;;;2.78;;
75793;SDS011;64418;47.536;19.074;2023-03-16T03:49:56;6.83;;;2.87;;
75793;SDS011;64418;47.536;19.074;2023-03-16T03:52:22;10.25;;;3.15;;
75793;SDS011;64418;47.536;19.074;2023-03-16T03:54:47;7.40;;;2.87;;
75793;SDS011;64418;47.536;19.074;2023-03-16T03:57:15;6.93;;;3.03;;
75793;SDS011;64418;47.536;19.074;2023-03-16T03:59:41;8.57;;;3.50;;
75793;SDS011;64418;47.536;19.074;2023-03-16T04:02:07;8.60;;;2.97;;
75793;SDS011;64418;47.536;19.074;2023-03-16T04:04:32;11.85;;;3.50;;
75793;SDS011;64418;47.536;19.074;2023-03-16T04:06:58;8.13;;;3.20;;
75793;SDS011;64418;47.536;19.074;2023-03-16T04:09:24;8.35;;;3.22;;
75793;SDS011;64418;47.536;19.074;2023-03-16T04:11:50;8.90;;;3.10;;
75793;SDS011;64418;47.536;19.074;2023-03-16T04:14:18;6.18;;;3.00;;
75793;SDS011;64418;47.536;19.074;2023-03-16T04:16:43;8.43;;;3.10;;
75793;SDS011;64418;47.536;19.074;2023-03-16T04:19:09;4.70;;;2.57;;
75793;SDS011;64418;47.536;19.074;2023-03-16T04:21:35;6.90;;;3.33;;
75793;SDS011;64418;47.536;19.074;2023-03-16T04:24:01;7.80;;;3.58;;
75793;SDS011;64418;47.536;19.074;2023-03-16T04:26:29;5.65;;;2.92;;
75793;SDS011;64418;47.536;19.074;2023-03-16T04:28:55;8.13;;;3.10;;
75793;SDS011;64418;47.536;19.074;2023-03-16T04:31:22;6.75;;;3.28;;
75793;SDS011;64418;47.536;19.074;2023-03-16T04:33:49;7.32;;;3.25;;
75793;SDS011;64418;47.536;19.074;2023-03-16T04:36:15;6.28;;;3.37;;
75793;SDS011;64418;47.536;19.074;2023-03-16T04:38:41;5.83;;;2.90;;
75793;SDS011;64418;47.536;19.074;2023-03-16T04:41:08;7.03;;;3.25;;
75793;SDS011;64418;47.536;19.074;2023-03-16T04:43:33;7.28;;;3.28;;
75793;SDS011;64418;47.536;19.074;2023-03-16T04:45:59;6.60;;;3.00;;
75793;SDS011;64418;47.536;19.074;2023-03-16T04:48:27;7.47;;;3.00;;
75793;SDS011;64418;47.536;19.074;2023-03-16T04:50:53;9.15;;;3.03;;
75793;SDS011;64418;47.536;19.074;2023-03-16T04:53:19;9.50;;;3.40;;
75793;SDS011;64418;47.536;19.074;2023-03-16T04:55:45;7.50;;;3.03;;
75793;SDS011;64418;47.536;19.074;2023-03-16T04:58:11;6.90;;;3.22;;
75793;SDS011;64418;47.536;19.074;2023-03-16T05:00:37;8.70;;;3.20;;
75793;SDS011;64418;47.536;19.074;2023-03-16T05:03:03;9.47;;;3.77;;
75793;SDS011;64418;47.536;19.074;2023-03-16T05:05:31;8.77;;;3.55;;
75793;SDS011;64418;47.536;19.074;2023-03-16T05:07:57;6.87;;;3.30;;
75793;SDS011;64418;47.536;19.074;2023-03-16T05:10:22;8.23;;;3.30;;
75793;SDS011;64418;47.536;19.074;2023-03-16T05:12:48;9.88;;;3.33;;
75793;SDS011;64418;47.536;19.074;2023-03-16T05:15:14;8.63;;;3.47;;
75793;SDS011;64418;47.536;19.074;2023-03-16T05:17:39;6.35;;;3.72;;
75793;SDS011;64418;47.536;19.074;2023-03-16T05:20:06;6.75;;;3.80;;
75793;SDS011;64418;47.536;19.074;2023-03-16T05:22:34;10.73;;;4.03;;
75793;SDS011;64418;47.536;19.074;2023-03-16T05:25:00;6.30;;;3.42;;
75793;SDS011;64418;47.536;19.074;2023-03-16T05:27:25;7.53;;;3.67;;
75793;SDS011;64418;47.536;19.074;2023-03-16T05:29:51;8.33;;;3.77;;
75793;SDS011;64418;47.536;19.074;2023-03-16T05:32:17;7.35;;;3.80;;
75793;SDS011;64418;47.536;19.074;2023-03-16T05:34:42;8.43;;;4.23;;
75793;SDS011;64418;47.536;19.074;2023-03-16T05:37:08;8.88;;;3.85;;
75793;SDS011;64418;47.536;19.074;2023-03-16T05:39:36;9.15;;;3.80;;
75793;SDS011;64418;47.536;19.074;2023-03-16T05:42:01;8.75;;;3.78;;
75793;SDS011;64418;47.536;19.074;2023-03-16T05:44:27;7.83;;;3.73;;
75793;SDS011;64418;47.536;19.074;2023-03-16T05:46:53;10.63;;;4.50;;
75793;SDS011;64418;47.536;19.074;2023-03-16T05:49:20;11.32;;;4.18;;
75793;SDS011;64418;47.536;19.074;2023-03-16T05:51:46;6.20;;;3.72;;
75793;SDS011;64418;47.536;19.074;2023-03-16T05:54:12;7.43;;;3.63;;
75793;SDS011;64418;47.536;19.074;2023-03-16T05:56:39;6.25;;;3.37;;
75793;SDS011;64418;47.536;19.074;2023-03-16T05:59:05;7.35;;;3.42;;
75793;SDS011;64418;47.536;19.074;2023-03-16T06:01:31;8.87;;;3.60;;
75793;SDS011;64418;47.536;19.074;2023-03-16T06:03:57;6.80;;;3.55;;
75793;SDS011;64418;47.536;19.074;2023-03-16T06:06:23;9.60;;;4.00;;
75793;SDS011;64418;47.536;19.074;2023-03-16T06:08:49;7.57;;;3.90;;
75793;SDS011;64418;47.536;19.074;2023-03-16T06:11:14;9.57;;;3.85;;
75793;SDS011;64418;47.536;19.074;2023-03-16T06:13:42;8.65;;;3.92;;
75793;SDS011;64418;47.536;19.074;2023-03-16T06:16:08;8.73;;;3.70;;
75793;SDS011;64418;47.536;19.074;2023-03-16T06:18:34;14.10;;;3.70;;
75793;SDS011;64418;47.536;19.074;2023-03-16T06:21:00;7.78;;;3.83;;
75793;SDS011;64418;47.536;19.074;2023-03-16T06:23:27;9.88;;;3.95;;
75793;SDS011;64418;47.536;19.074;2023-03-16T06:25:52;9.50;;;3.40;;
75793;SDS011;64418;47.536;19.074;2023-03-16T06:28:18;9.43;;;3.90;;
75793;SDS011;64418;47.536;19.074;2023-03-16T06:30:45;7.77;;;3.83;;
75793;SDS011;64418;47.536;19.074;2023-03-16T06:33:11;8.73;;;3.50;;
75793;SDS011;64418;47.536;19.074;2023-03-16T06:35:37;9.40;;;3.42;;
75793;SDS011;64418;47.536;19.074;2023-03-16T06:38:03;7.70;;;3.75;;
75793;SDS011;64418;47.536;19.074;2023-03-16T06:40:29;9.40;;;3.53;;
75793;SDS011;64418;47.536;19.074;2023-03-16T06:42:56;11.43;;;4.05;;
75793;SDS011;64418;47.536;19.074;2023-03-16T06:45:22;9.13;;;3.20;;
75793;SDS011;64418;47.536;19.074;2023-03-16T06:47:49;11.70;;;3.90;;
75793;SDS011;64418;47.536;19.074;2023-03-16T06:50:15;7.00;;;3.60;;
75793;SDS011;64418;47.536;19.074;2023-03-16T06:52:41;10.50;;;3.87;;
75793;SDS011;64418;47.536;19.074;2023-03-16T06:55:08;9.00;;;4.18;;
75793;SDS011;64418;47.536;19.074;2023-03-16T06:57:33;10.90;;;3.37;;
75793;SDS011;64418;47.536;19.074;2023-03-16T07:00:00;8.97;;;3.70;;
75793;SDS011;64418;47.536;19.074;2023-03-16T07:02:25;9.70;;;4.07;;
75793;SDS011;64418;47.536;19.074;2023-03-16T07:04:53;9.20;;;3.80;;
75793;SDS011;64418;47.536;19.074;2023-03-16T07:07:19;6.55;;;3.25;;
75793;SDS011;64418;47.536;19.074;2023-03-16T07:09:45;13.83;;;3.80;;
75793;SDS011;64418;47.536;19.074;2023-03-16T07:12:11;9.93;;;3.83;;
75793;SDS011;64418;47.536;19.074;2023-03-16T07:14:46;6.40;;;3.58;;
75793;SDS011;64418;47.536;19.074;2023-03-16T07:17:14;9.40;;;4.10;;
75793;SDS011;64418;47.536;19.074;2023-03-16T07:19:40;6.30;;;3.58;;
75793;SDS011;64418;47.536;19.074;2023-03-16T07:22:08;6.80;;;3.27;;
75793;SDS011;64418;47.536;19.074;2023-03-16T07:24:34;9.30;;;3.70;;
75793;SDS011;64418;47.536;19.074;2023-03-16T07:27:00;7.72;;;3.83;;
75793;SDS011;64418;47.536;19.074;2023-03-16T07:29:25;9.07;;;4.00;;
75793;SDS011;64418;47.536;19.074;2023-03-16T07:31:51;6.93;;;3.77;;
75793;SDS011;64418;47.536;19.074;2023-03-16T07:34:17;6.27;;;3.63;;
75793;SDS011;64418;47.536;19.074;2023-03-16T07:36:43;7.53;;;3.60;;
75793;SDS011;64418;47.536;19.074;2023-03-16T07:39:10;8.40;;;4.03;;
75793;SDS011;64418;47.536;19.074;2023-03-16T07:41:36;8.65;;;3.80;;
75793;SDS011;64418;47.536;19.074;2023-03-16T07:44:02;8.40;;;3.70;;
75793;SDS011;64418;47.536;19.074;2023-03-16T07:46:27;11.50;;;3.87;;
75793;SDS011;64418;47.536;19.074;2023-03-16T07:48:53;7.03;;;3.72;;
75793;SDS011;64418;47.536;19.074;2023-03-16T07:51:19;7.17;;;3.87;;
75793;SDS011;64418;47.536;19.074;2023-03-16T07:53:45;8.88;;;4.20;;
75793;SDS011;64418;47.536;19.074;2023-03-16T07:56:13;7.32;;;3.95;;
75793;SDS011;64418;47.536;19.074;2023-03-16T07:58:39;9.27;;;3.75;;
75793;SDS011;64418;47.536;19.074;2023-03-16T08:01:04;8.10;;;3.73;;
75793;SDS011;64418;47.536;19.074;2023-03-16T08:03:31;8.25;;;4.00;;
75793;SDS011;64418;47.536;19.074;2023-03-16T08:05:57;6.95;;;3.97;;
75793;SDS011;64418;47.536;19.074;2023-03-16T08:08:23;11.38;;;3.75;;
75793;SDS011;64418;47.536;19.074;2023-03-16T08:10:49;7.90;;;3.57;;
75793;SDS011;64418;47.536;19.074;2023-03-16T08:13:17;7.50;;;3.30;;
75793;SDS011;64418;47.536;19.074;2023-03-16T08:15:44;7.05;;;3.20;;
75793;SDS011;64418;47.536;19.074;2023-03-16T08:18:12;8.30;;;3.62;;
75793;SDS011;64418;47.536;19.074;2023-03-16T08:20:37;7.00;;;3.30;;
75793;SDS011;64418;47.536;19.074;2023-03-16T08:23:03;6.93;;;3.70;;
75793;SDS011;64418;47.536;19.074;2023-03-16T08:25:29;5.68;;;3.78;;
75793;SDS011;64418;47.536;19.074;2023-03-16T08:27:55;7.13;;;3.60;;
75793;SDS011;64418;47.536;19.074;2023-03-16T08:30:22;8.60;;;3.47;;
75793;SDS011;64418;47.536;19.074;2023-03-16T08:32:48;5.55;;;3.37;;
75793;SDS011;64418;47.536;19.074;2023-03-16T08:35:14;6.90;;;3.33;;
75793;SDS011;64418;47.536;19.074;2023-03-16T08:37:41;6.97;;;3.00;;
75793;SDS011;64418;47.536;19.074;2023-03-16T08:40:08;8.52;;;3.50;;
75793;SDS011;64418;47.536;19.074;2023-03-16T08:42:36;6.28;;;2.90;;
75793;SDS011;64418;47.536;19.074;2023-03-16T08:45:03;7.15;;;3.30;;
75793;SDS011;64418;47.536;19.074;2023-03-16T08:47:31;4.97;;;2.40;;
75793;SDS011;64418;47.536;19.074;2023-03-16T08:49:57;6.20;;;2.77;;
75793;SDS011;64418;47.536;19.074;2023-03-16T08:52:23;6.25;;;3.12;;
75793;SDS011;64418;47.536;19.074;2023-03-16T08:54:49;5.60;;;3.20;;
75793;SDS011;64418;47.536;19.074;2023-03-16T08:57:14;8.68;;;3.20;;
75793;SDS011;64418;47.536;19.074;2023-03-16T08:59:40;5.60;;;2.90;;
75793;SDS011;64418;47.536;19.074;2023-03-16T09:02:09;5.47;;;2.93;;
75793;SDS011;64418;47.536;19.074;2023-03-16T09:04:38;5.00;;;3.10;;
75793;SDS011;64418;47.536;19.074;2023-03-16T09:07:04;6.25;;;3.00;;
75793;SDS011;64418;47.536;19.074;2023-03-16T09:09:30;7.15;;;2.92;;
75793;SDS011;64418;47.536;19.074;2023-03-16T09:11:56;8.13;;;3.22;;
75793;SDS011;64418;47.536;19.074;2023-03-16T09:14:22;5.33;;;3.60;;
75793;SDS011;64418;47.536;19.074;2023-03-16T09:16:48;4.53;;;3.10;;
75793;SDS011;64418;47.536;19.074;2023-03-16T09:19:14;5.53;;;3.25;;
75793;SDS011;64418;47.536;19.074;2023-03-16T09:21:41;4.67;;;2.70;;
75793;SDS011;64418;47.536;19.074;2023-03-16T09:24:07;7.60;;;3.33;;
75793;SDS011;64418;47.536;19.074;2023-03-16T09:26:33;8.10;;;3.25;;
75793;SDS011;64418;47.536;19.074;2023-03-16T09:29:00;8.07;;;3.30;;
75793;SDS011;64418;47.536;19.074;2023-03-16T09:31:25;4.77;;;3.20;;
75793;SDS011;64418;47.536;19.074;2023-03-16T09:33:51;7.03;;;3.20;;
75793;SDS011;64418;47.536;19.074;2023-03-16T09:36:17;9.80;;;3.60;;
75793;SDS011;64418;47.536;19.074;2023-03-16T09:38:44;6.57;;;3.10;;
75793;SDS011;64418;47.536;19.074;2023-03-16T09:41:14;5.68;;;3.22;;
75793;SDS011;64418;47.536;19.074;2023-03-16T09:43:55;7.68;;;3.40;;
75793;SDS011;64418;47.536;19.074;2023-03-16T09:46:30;4.20;;;2.97;;
75793;SDS011;64418;47.536;19.074;2023-03-16T09:49:00;5.30;;;2.20;;
75793;SDS011;64418;47.536;19.074;2023-03-16T09:51:31;4.55;;;2.20;;
75793;SDS011;64418;47.536;19.074;2023-03-16T09:54:04;6.60;;;2.53;;
75793;SDS011;64418;47.536;19.074;2023-03-16T09:56:38;7.72;;;2.25;;
75793;SDS011;64418;47.536;19.074;2023-03-16T09:59:08;7.00;;;2.60;;
75793;SDS011;64418;47.536;19.074;2023-03-16T10:01:37;5.47;;;2.07;;
75793;SDS011;64418;47.536;19.074;2023-03-16T10:04:15;5.78;;;2.70;;
75793;SDS011;64418;47.536;19.074;2023-03-16T10:07:00;5.62;;;2.45;;
75793;SDS011;64418;47.536;19.074;2023-03-16T10:09:40;4.95;;;2.00;;
75793;SDS011;64418;47.536;19.074;2023-03-16T10:12:12;5.28;;;2.50;;
75793;SDS011;64418;47.536;19.074;2023-03-16T10:14:40;5.30;;;2.40;;
75793;SDS011;64418;47.536;19.074;2023-03-16T10:17:16;4.43;;;2.30;;
75793;SDS011;64418;47.536;19.074;2023-03-16T10:19:47;11.60;;;3.70;;
75793;SDS011;64418;47.536;19.074;2023-03-16T10:22:18;40.80;;;9.88;;
75793;SDS011;64418;47.536;19.074;2023-03-16T10:24:49;7.78;;;3.03;;
75793;SDS011;64418;47.536;19.074;2023-03-16T10:27:24;12.67;;;3.53;;
75793;SDS011;64418;47.536;19.074;2023-03-16T10:29:55;8.03;;;2.93;;
75793;SDS011;64418;47.536;19.074;2023-03-16T10:32:21;4.18;;;1.95;;
75793;SDS011;64418;47.536;19.074;2023-03-16T10:34:51;8.30;;;3.92;;
75793;SDS011;64418;47.536;19.074;2023-03-16T10:37:23;5.07;;;2.53;;
75793;SDS011;64418;47.536;19.074;2023-03-16T10:39:50;5.00;;;2.47;;
75793;SDS011;64418;47.536;19.074;2023-03-16T10:42:17;5.60;;;2.33;;
75793;SDS011;64418;47.536;19.074;2023-03-16T10:44:44;4.57;;;2.50;;
75793;SDS011;64418;47.536;19.074;2023-03-16T10:47:15;6.25;;;2.70;;
75793;SDS011;64418;47.536;19.074;2023-03-16T10:49:44;4.93;;;2.22;;
75793;SDS011;64418;47.536;19.074;2023-03-16T10:52:12;4.07;;;2.53;;
75793;SDS011;64418;47.536;19.074;2023-03-16T10:54:46;5.57;;;2.80;;
75793;SDS011;64418;47.536;19.074;2023-03-16T10:57:21;5.90;;;2.78;;
75793;SDS011;64418;47.536;19.074;2023-03-16T10:59:49;5.97;;;2.50;;
75793;SDS011;64418;47.536;19.074;2023-03-16T11:02:18;3.97;;;2.10;;
75793;SDS011;64418;47.536;19.074;2023-03-16T11:04:45;4.85;;;2.10;;
75793;SDS011;64418;47.536;19.074;2023-03-16T11:07:14;3.33;;;1.90;;
75793;SDS011;64418;47.536;19.074;2023-03-16T11:09:41;5.62;;;2.22;;
75793;SDS011;64418;47.536;19.074;2023-03-16T11:12:13;4.97;;;2.15;;
75793;SDS011;64418;47.536;19.074;2023-03-16T11:14:46;3.13;;;2.17;;
75793;SDS011;64418;47.536;19.074;2023-03-16T11:17:13;3.87;;;1.98;;
75793;SDS011;64418;47.536;19.074;2023-03-16T11:19:45;4.65;;;2.20;;
75793;SDS011;64418;47.536;19.074;2023-03-16T11:22:16;3.62;;;1.85;;
75793;SDS011;64418;47.536;19.074;2023-03-16T11:24:47;4.62;;;2.40;;
75793;SDS011;64418;47.536;19.074;2023-03-16T11:27:19;5.63;;;2.07;;
75793;SDS011;64418;47.536;19.074;2023-03-16T11:29:53;3.87;;;2.08;;
75793;SDS011;64418;47.536;19.074;2023-03-16T11:32:26;6.00;;;2.42;;
75793;SDS011;64418;47.536;19.074;2023-03-16T11:34:57;4.22;;;1.98;;
75793;SDS011;64418;47.536;19.074;2023-03-16T11:37:27;3.90;;;2.00;;
75793;SDS011;64418;47.536;19.074;2023-03-16T11:40:07;4.03;;;1.97;;
75793;SDS011;64418;47.536;19.074;2023-03-16T11:42:45;4.25;;;2.00;;
75793;SDS011;64418;47.536;19.074;2023-03-16T11:45:23;3.47;;;1.75;;
75793;SDS011;64418;47.536;19.074;2023-03-16T11:47:59;4.05;;;1.75;;
75793;SDS011;64418;47.536;19.074;2023-03-16T11:50:42;4.22;;;1.98;;
75793;SDS011;64418;47.536;19.074;2023-03-16T11:53:41;4.47;;;1.77;;
75793;SDS011;64418;47.536;19.074;2023-03-16T11:56:15;6.43;;;2.20;;
75793;SDS011;64418;47.536;19.074;2023-03-16T11:58:59;6.15;;;1.87;;
75793;SDS011;64418;47.536;19.074;2023-03-16T12:01:37;2.53;;;1.60;;
75793;SDS011;64418;47.536;19.074;2023-03-16T12:04:21;3.00;;;1.52;;
75793;SDS011;64418;47.536;19.074;2023-03-16T12:07:03;3.50;;;1.58;;
75793;SDS011;64418;47.536;19.074;2023-03-16T12:12:54;3.85;;;1.60;;
75793;SDS011;64418;47.536;19.074;2023-03-16T12:15:31;2.33;;;1.30;;
75793;SDS011;64418;47.536;19.074;2023-03-16T12:18:03;4.10;;;1.60;;
75793;SDS011;64418;47.536;19.074;2023-03-16T12:20:39;3.47;;;1.40;;
75793;SDS011;64418;47.536;19.074;2023-03-16T12:23:11;2.57;;;1.20;;
75793;SDS011;64418;47.536;19.074;2023-03-16T12:25:40;4.50;;;1.20;;
75793;SDS011;64418;47.536;19.074;2023-03-16T12:28:10;4.32;;;1.50;;
75793;SDS011;64418;47.536;19.074;2023-03-16T12:30:42;2.12;;;1.40;;
75793;SDS011;64418;47.536;19.074;2023-03-16T12:33:19;4.80;;;1.23;;
75793;SDS011;64418;47.536;19.074;2023-03-16T12:36:00;2.10;;;1.10;;
75793;SDS011;64418;47.536;19.074;2023-03-16T12:38:35;2.53;;;1.30;;
75793;SDS011;64418;47.536;19.074;2023-03-16T12:41:11;2.53;;;1.02;;
75793;SDS011;64418;47.536;19.074;2023-03-16T12:43:50;2.25;;;1.20;;
75793;SDS011;64418;47.536;19.074;2023-03-16T12:46:27;3.22;;;1.30;;
75793;SDS011;64418;47.536;19.074;2023-03-16T12:49:03;2.75;;;1.20;;
75793;SDS011;64418;47.536;19.074;2023-03-16T12:51:34;3.43;;;1.13;;
75793;SDS011;64418;47.536;19.074;2023-03-16T12:54:01;2.40;;;1.17;;
75793;SDS011;64418;47.536;19.074;2023-03-16T12:56:28;2.47;;;1.20;;
75793;SDS011;64418;47.536;19.074;2023-03-16T12:58:56;3.15;;;1.10;;
75793;SDS011;64418;47.536;19.074;2023-03-16T13:01:24;1.92;;;1.10;;
75793;SDS011;64418;47.536;19.074;2023-03-16T13:03:58;2.37;;;1.20;;
75793;SDS011;64418;47.536;19.074;2023-03-16T13:06:31;2.10;;;1.00;;
75793;SDS011;64418;47.536;19.074;2023-03-16T13:08:59;2.35;;;1.10;;
75793;SDS011;64418;47.536;19.074;2023-03-16T13:11:25;2.37;;;1.30;;
75793;SDS011;64418;47.536;19.074;2023-03-16T13:13:52;2.50;;;1.30;;
75793;SDS011;64418;47.536;19.074;2023-03-16T13:16:30;2.55;;;1.23;;
75793;SDS011;64418;47.536;19.074;2023-03-16T13:18:57;2.47;;;1.20;;
75793;SDS011;64418;47.536;19.074;2023-03-16T13:21:35;3.05;;;1.10;;
75793;SDS011;64418;47.536;19.074;2023-03-16T13:24:12;2.62;;;1.10;;
75793;SDS011;64418;47.536;19.074;2023-03-16T13:26:50;2.60;;;1.15;;
75793;SDS011;64418;47.536;19.074;2023-03-16T13:29:23;2.20;;;1.10;;
75793;SDS011;64418;47.536;19.074;2023-03-16T13:31:50;2.93;;;0.90;;
75793;SDS011;64418;47.536;19.074;2023-03-16T13:34:21;2.27;;;0.93;;
75793;SDS011;64418;47.536;19.074;2023-03-16T13:36:51;2.22;;;1.00;;
75793;SDS011;64418;47.536;19.074;2023-03-16T13:39:20;2.45;;;1.00;;
75793;SDS011;64418;47.536;19.074;2023-03-16T13:41:54;3.75;;;1.20;;
75793;SDS011;64418;47.536;19.074;2023-03-16T13:44:21;2.58;;;1.00;;
75793;SDS011;64418;47.536;19.074;2023-03-16T13:46:48;1.80;;;1.03;;
75793;SDS011;64418;47.536;19.074;2023-03-16T13:49:14;5.93;;;1.12;;
75793;SDS011;64418;47.536;19.074;2023-03-16T13:51:40;2.33;;;1.30;;
75793;SDS011;64418;47.536;19.074;2023-03-16T13:54:14;2.25;;;1.10;;
75793;SDS011;64418;47.536;19.074;2023-03-16T13:57:01;7.03;;;1.27;;
75793;SDS011;64418;47.536;19.074;2023-03-16T13:59:29;2.07;;;1.20;;
75793;SDS011;64418;47.536;19.074;2023-03-16T14:01:55;2.62;;;1.10;;
75793;SDS011;64418;47.536;19.074;2023-03-16T14:04:24;2.72;;;0.90;;
75793;SDS011;64418;47.536;19.074;2023-03-16T14:06:53;3.22;;;1.92;;
75793;SDS011;64418;47.536;19.074;2023-03-16T14:09:23;2.42;;;1.30;;
75793;SDS011;64418;47.536;19.074;2023-03-16T14:11:50;2.27;;;1.00;;
75793;SDS011;64418;47.536;19.074;2023-03-16T14:14:20;6.73;;;1.40;;
75793;SDS011;64418;47.536;19.074;2023-03-16T14:16:49;3.10;;;1.37;;
75793;SDS011;64418;47.536;19.074;2023-03-16T14:19:16;3.72;;;1.20;;
75793;SDS011;64418;47.536;19.074;2023-03-16T14:21:44;5.97;;;1.50;;
75793;SDS011;64418;47.536;19.074;2023-03-16T14:24:15;2.03;;;0.98;;
75793;SDS011;64418;47.536;19.074;2023-03-16T14:26:51;1.67;;;0.90;;
75793;SDS011;64418;47.536;19.074;2023-03-16T14:29:18;3.05;;;1.00;;
75793;SDS011;64418;47.536;19.074;2023-03-16T14:31:47;4.37;;;1.00;;
75793;SDS011;64418;47.536;19.074;2023-03-16T14:34:20;2.35;;;1.00;;
75793;SDS011;64418;47.536;19.074;2023-03-16T14:36:51;5.70;;;1.10;;
75793;SDS011;64418;47.536;19.074;2023-03-16T14:39:18;4.53;;;0.90;;
75793;SDS011;64418;47.536;19.074;2023-03-16T14:41:47;3.75;;;0.95;;
75793;SDS011;64418;47.536;19.074;2023-03-16T14:44:19;2.78;;;1.20;;